MKJS 192300Z 07013KT 9999 FEW022 27/23 Q1014
MKJP 192300Z 13018KT 9999 FEW022 BKN032 29/19 Q1014
MWCR 192300Z 09008KT 9999 FEW018 BKN030 27/23 Q1015
MWCB 192300Z 14010KT 9999 SCT016 25/21 Q1016